sensor_id;sensor_type;location;lat;lon;timestamp;temperature;humidity
13049;DHT22;6591;51.446;5.404;2022-07-29T00:01:56;21.00;67.70
13049;DHT22;6591;51.446;5.404;2022-07-29T00:04:28;22.70;68.90
13049;DHT22;6591;51.446;5.404;2022-07-29T00:07:00;22.30;69.10
13049;DHT22;6591;51.446;5.404;2022-07-29T00:09:28;22.40;68.70
13049;DHT22;6591;51.446;5.404;2022-07-29T00:11:58;21.10;68.80
13049;DHT22;6591;51.446;5.404;2022-07-29T00:14:28;22.90;69.50
13049;DHT22;6591;51.446;5.404;2022-07-29T00:16:55;20.90;68.00
13049;DHT22;6591;51.446;5.404;2022-07-29T00:19:22;20.80;68.00
13049;DHT22;6591;51.446;5.404;2022-07-29T00:21:50;20.70;67.70
13049;DHT22;6591;51.446;5.404;2022-07-29T00:24:18;22.10;69.90
13049;DHT22;6591;51.446;5.404;2022-07-29T00:26:45;20.70;68.30
13049;DHT22;6591;51.446;5.404;2022-07-29T00:29:12;18.60;67.10
13049;DHT22;6591;51.446;5.404;2022-07-29T00:32:00;20.60;68.40
13049;DHT22;6591;51.446;5.404;2022-07-29T00:34:27;20.60;68.60
13049;DHT22;6591;51.446;5.404;2022-07-29T00:37:17;20.60;68.50
13049;DHT22;6591;51.446;5.404;2022-07-29T00:39:44;20.50;68.50
13049;DHT22;6591;51.446;5.404;2022-07-29T00:42:11;21.10;70.00
13049;DHT22;6591;51.446;5.404;2022-07-29T00:44:41;21.20;71.70
13049;DHT22;6591;51.446;5.404;2022-07-29T00:47:09;22.40;73.80
13049;DHT22;6591;51.446;5.404;2022-07-29T00:49:40;20.30;73.40
13049;DHT22;6591;51.446;5.404;2022-07-29T00:52:09;20.50;74.30
13049;DHT22;6591;51.446;5.404;2022-07-29T00:54:39;20.00;74.60
13049;DHT22;6591;51.446;5.404;2022-07-29T00:57:10;22.10;77.30
13049;DHT22;6591;51.446;5.404;2022-07-29T00:59:38;19.60;76.20
13049;DHT22;6591;51.446;5.404;2022-07-29T01:02:05;19.40;77.00
13049;DHT22;6591;51.446;5.404;2022-07-29T01:04:32;21.40;80.10
13049;DHT22;6591;51.446;5.404;2022-07-29T01:07:03;19.10;79.70
13049;DHT22;6591;51.446;5.404;2022-07-29T01:09:33;20.80;83.70
13049;DHT22;6591;51.446;5.404;2022-07-29T01:12:18;18.70;83.80
13049;DHT22;6591;51.446;5.404;2022-07-29T01:14:50;18.60;85.00
13049;DHT22;6591;51.446;5.404;2022-07-29T01:17:26;18.40;84.30
13049;DHT22;6591;51.446;5.404;2022-07-29T01:20:46;18.30;86.10
13049;DHT22;6591;51.446;5.404;2022-07-29T01:26:33;18.00;88.20
13049;DHT22;6591;51.446;5.404;2022-07-29T01:29:26;17.90;90.10
13049;DHT22;6591;51.446;5.404;2022-07-29T01:32:15;17.80;91.80
13049;DHT22;6591;51.446;5.404;2022-07-29T01:35:03;19.00;92.70
13049;DHT22;6591;51.446;5.404;2022-07-29T01:38:04;19.20;93.10
13049;DHT22;6591;51.446;5.404;2022-07-29T01:43:49;17.40;92.20
13049;DHT22;6591;51.446;5.404;2022-07-29T01:46:35;17.50;92.60
13049;DHT22;6591;51.446;5.404;2022-07-29T01:49:10;18.60;93.30
13049;DHT22;6591;51.446;5.404;2022-07-29T01:51:52;17.40;92.50
13049;DHT22;6591;51.446;5.404;2022-07-29T01:54:38;17.40;93.90
13049;DHT22;6591;51.446;5.404;2022-07-29T01:57:14;17.40;94.80
13049;DHT22;6591;51.446;5.404;2022-07-29T01:59:47;17.30;93.80
13049;DHT22;6591;51.446;5.404;2022-07-29T02:02:18;18.20;94.80
13049;DHT22;6591;51.446;5.404;2022-07-29T02:04:48;17.40;94.80
13049;DHT22;6591;51.446;5.404;2022-07-29T02:07:20;17.40;94.90
13049;DHT22;6591;51.446;5.404;2022-07-29T02:09:49;17.50;95.20
13049;DHT22;6591;51.446;5.404;2022-07-29T02:12:24;17.70;95.30
13049;DHT22;6591;51.446;5.404;2022-07-29T02:14:53;17.40;95.40
13049;DHT22;6591;51.446;5.404;2022-07-29T02:17:32;17.50;95.70
13049;DHT22;6591;51.446;5.404;2022-07-29T02:20:08;17.50;96.10
13049;DHT22;6591;51.446;5.404;2022-07-29T02:22:39;17.50;95.80
13049;DHT22;6591;51.446;5.404;2022-07-29T02:25:10;17.50;96.30
13049;DHT22;6591;51.446;5.404;2022-07-29T02:27:41;17.50;96.30
13049;DHT22;6591;51.446;5.404;2022-07-29T02:30:12;19.50;97.20
13049;DHT22;6591;51.446;5.404;2022-07-29T02:32:40;17.50;96.80
13049;DHT22;6591;51.446;5.404;2022-07-29T02:35:15;17.60;97.00
13049;DHT22;6591;51.446;5.404;2022-07-29T02:37:44;17.50;97.00
13049;DHT22;6591;51.446;5.404;2022-07-29T02:40:34;17.50;97.20
13049;DHT22;6591;51.446;5.404;2022-07-29T02:43:06;17.50;97.20
13049;DHT22;6591;51.446;5.404;2022-07-29T02:45:42;18.90;97.60
13049;DHT22;6591;51.446;5.404;2022-07-29T02:48:19;17.50;97.30
13049;DHT22;6591;51.446;5.404;2022-07-29T02:51:01;17.50;97.60
13049;DHT22;6591;51.446;5.404;2022-07-29T02:53:57;19.20;98.40
13049;DHT22;6591;51.446;5.404;2022-07-29T02:56:28;17.40;97.70
13049;DHT22;6591;51.446;5.404;2022-07-29T02:59:27;16.50;97.70
13049;DHT22;6591;51.446;5.404;2022-07-29T03:01:58;17.40;99.30
13049;DHT22;6591;51.446;5.404;2022-07-29T03:04:27;19.00;98.70
13049;DHT22;6591;51.446;5.404;2022-07-29T03:06:58;18.60;98.80
13049;DHT22;6591;51.446;5.404;2022-07-29T03:09:28;17.30;98.80
13049;DHT22;6591;51.446;5.404;2022-07-29T03:11:57;17.20;99.30
13049;DHT22;6591;51.446;5.404;2022-07-29T03:14:24;17.20;99.30
13049;DHT22;6591;51.446;5.404;2022-07-29T03:16:58;19.40;99.90
13049;DHT22;6591;51.446;5.404;2022-07-29T03:19:26;17.20;99.40
13049;DHT22;6591;51.446;5.404;2022-07-29T03:21:56;17.20;99.60
13049;DHT22;6591;51.446;5.404;2022-07-29T03:24:33;18.10;99.90
13049;DHT22;6591;51.446;5.404;2022-07-29T03:27:03;19.40;99.90
13049;DHT22;6591;51.446;5.404;2022-07-29T03:29:33;17.10;99.70
13049;DHT22;6591;51.446;5.404;2022-07-29T03:32:03;17.10;99.40
13049;DHT22;6591;51.446;5.404;2022-07-29T03:34:35;17.10;99.40
13049;DHT22;6591;51.446;5.404;2022-07-29T03:37:05;19.00;99.80
13049;DHT22;6591;51.446;5.404;2022-07-29T03:39:38;18.50;99.60
13049;DHT22;6591;51.446;5.404;2022-07-29T03:42:10;17.20;99.50
13049;DHT22;6591;51.446;5.404;2022-07-29T03:44:44;17.10;99.90
13049;DHT22;6591;51.446;5.404;2022-07-29T03:47:15;17.10;99.90
13049;DHT22;6591;51.446;5.404;2022-07-29T03:49:48;19.00;99.90
13049;DHT22;6591;51.446;5.404;2022-07-29T03:52:20;17.10;99.90
13049;DHT22;6591;51.446;5.404;2022-07-29T03:54:51;18.40;99.90
13049;DHT22;6591;51.446;5.404;2022-07-29T03:57:23;18.00;99.90
13049;DHT22;6591;51.446;5.404;2022-07-29T03:59:56;17.10;99.90
13049;DHT22;6591;51.446;5.404;2022-07-29T04:02:24;17.10;99.90
13049;DHT22;6591;51.446;5.404;2022-07-29T04:04:56;17.00;99.90
13049;DHT22;6591;51.446;5.404;2022-07-29T04:07:23;17.10;99.90
13049;DHT22;6591;51.446;5.404;2022-07-29T04:09:51;17.10;99.90
13049;DHT22;6591;51.446;5.404;2022-07-29T04:12:18;17.10;99.90
13049;DHT22;6591;51.446;5.404;2022-07-29T04:14:46;17.10;99.90
13049;DHT22;6591;51.446;5.404;2022-07-29T04:17:13;17.10;99.90
13049;DHT22;6591;51.446;5.404;2022-07-29T04:19:40;17.90;99.90
13049;DHT22;6591;51.446;5.404;2022-07-29T04:22:08;17.10;99.90
13049;DHT22;6591;51.446;5.404;2022-07-29T04:24:35;17.10;99.90
13049;DHT22;6591;51.446;5.404;2022-07-29T04:27:02;19.00;99.90
13049;DHT22;6591;51.446;5.404;2022-07-29T04:29:32;18.40;99.90
13049;DHT22;6591;51.446;5.404;2022-07-29T04:31:59;17.00;99.90
13049;DHT22;6591;51.446;5.404;2022-07-29T04:34:26;17.50;99.90
13049;DHT22;6591;51.446;5.404;2022-07-29T04:36:55;18.10;99.90
13049;DHT22;6591;51.446;5.404;2022-07-29T04:39:24;18.70;99.90
13049;DHT22;6591;51.446;5.404;2022-07-29T04:42:21;16.90;99.90
13049;DHT22;6591;51.446;5.404;2022-07-29T04:44:54;16.90;99.90
13049;DHT22;6591;51.446;5.404;2022-07-29T04:47:21;17.30;99.90
13049;DHT22;6591;51.446;5.404;2022-07-29T04:49:49;16.80;99.90
13049;DHT22;6591;51.446;5.404;2022-07-29T04:52:16;17.90;99.90
13049;DHT22;6591;51.446;5.404;2022-07-29T04:54:43;16.80;99.90
13049;DHT22;6591;51.446;5.404;2022-07-29T04:57:10;18.90;99.90
13049;DHT22;6591;51.446;5.404;2022-07-29T04:59:37;16.80;99.90
13049;DHT22;6591;51.446;5.404;2022-07-29T05:02:08;16.80;99.90
13049;DHT22;6591;51.446;5.404;2022-07-29T05:04:35;16.80;99.90
13049;DHT22;6591;51.446;5.404;2022-07-29T05:07:02;18.80;99.90
13049;DHT22;6591;51.446;5.404;2022-07-29T05:09:29;16.90;99.90
13049;DHT22;6591;51.446;5.404;2022-07-29T05:11:56;18.40;99.90
13049;DHT22;6591;51.446;5.404;2022-07-29T05:14:23;17.70;99.90
13049;DHT22;6591;51.446;5.404;2022-07-29T05:16:50;17.00;99.90
13049;DHT22;6591;51.446;5.404;2022-07-29T05:19:17;18.90;99.90
13049;DHT22;6591;51.446;5.404;2022-07-29T05:21:46;18.00;99.90
13049;DHT22;6591;51.446;5.404;2022-07-29T05:24:13;18.60;99.90
13049;DHT22;6591;51.446;5.404;2022-07-29T05:26:41;19.00;99.90
13049;DHT22;6591;51.446;5.404;2022-07-29T05:29:10;18.10;99.90
13049;DHT22;6591;51.446;5.404;2022-07-29T05:32:04;17.90;99.90
13049;DHT22;6591;51.446;5.404;2022-07-29T05:34:32;17.10;99.90
13049;DHT22;6591;51.446;5.404;2022-07-29T05:37:15;17.20;99.90
13049;DHT22;6591;51.446;5.404;2022-07-29T05:39:42;18.10;99.90
13049;DHT22;6591;51.446;5.404;2022-07-29T05:42:16;17.20;99.90
13049;DHT22;6591;51.446;5.404;2022-07-29T05:44:43;17.30;99.90
13049;DHT22;6591;51.446;5.404;2022-07-29T05:47:11;19.00;99.90
13049;DHT22;6591;51.446;5.404;2022-07-29T05:49:38;17.40;99.90
13049;DHT22;6591;51.446;5.404;2022-07-29T05:52:05;18.80;99.90
13049;DHT22;6591;51.446;5.404;2022-07-29T05:54:32;17.50;99.90
13049;DHT22;6591;51.446;5.404;2022-07-29T05:56:59;18.20;99.90
13049;DHT22;6591;51.446;5.404;2022-07-29T05:59:26;17.50;99.90
13049;DHT22;6591;51.446;5.404;2022-07-29T06:01:57;18.70;99.90
13049;DHT22;6591;51.446;5.404;2022-07-29T06:04:24;19.30;99.90
13049;DHT22;6591;51.446;5.404;2022-07-29T06:06:51;17.70;99.90
13049;DHT22;6591;51.446;5.404;2022-07-29T06:09:22;19.50;99.90
13049;DHT22;6591;51.446;5.404;2022-07-29T06:11:49;17.80;99.90
13049;DHT22;6591;51.446;5.404;2022-07-29T06:14:18;17.80;99.90
13049;DHT22;6591;51.446;5.404;2022-07-29T06:16:46;18.90;99.90
13049;DHT22;6591;51.446;5.404;2022-07-29T06:19:13;17.90;99.90
13049;DHT22;6591;51.446;5.404;2022-07-29T06:21:44;18.00;99.90
13049;DHT22;6591;51.446;5.404;2022-07-29T06:24:13;18.40;99.90
13049;DHT22;6591;51.446;5.404;2022-07-29T06:26:42;19.30;99.90
13049;DHT22;6591;51.446;5.404;2022-07-29T06:29:11;20.00;99.90
13049;DHT22;6591;51.446;5.404;2022-07-29T06:31:39;18.20;99.90
13049;DHT22;6591;51.446;5.404;2022-07-29T06:34:07;19.70;99.90
13049;DHT22;6591;51.446;5.404;2022-07-29T06:36:35;20.00;99.90
13049;DHT22;6591;51.446;5.404;2022-07-29T06:39:07;18.30;99.90
13049;DHT22;6591;51.446;5.404;2022-07-29T06:41:37;18.30;99.90
13049;DHT22;6591;51.446;5.404;2022-07-29T06:44:08;18.40;99.90
13049;DHT22;6591;51.446;5.404;2022-07-29T06:46:35;18.30;99.90
13049;DHT22;6591;51.446;5.404;2022-07-29T06:49:04;18.40;99.90
13049;DHT22;6591;51.446;5.404;2022-07-29T06:51:33;19.80;99.90
13049;DHT22;6591;51.446;5.404;2022-07-29T06:54:00;20.20;99.90
13049;DHT22;6591;51.446;5.404;2022-07-29T06:56:33;18.40;99.90
13049;DHT22;6591;51.446;5.404;2022-07-29T06:59:09;18.40;99.90
13049;DHT22;6591;51.446;5.404;2022-07-29T07:01:39;18.50;99.90
13049;DHT22;6591;51.446;5.404;2022-07-29T07:04:08;18.50;99.90
13049;DHT22;6591;51.446;5.404;2022-07-29T07:06:37;20.20;99.90
13049;DHT22;6591;51.446;5.404;2022-07-29T07:09:04;19.40;99.90
13049;DHT22;6591;51.446;5.404;2022-07-29T07:11:31;19.90;99.90
13049;DHT22;6591;51.446;5.404;2022-07-29T07:14:02;18.50;99.90
13049;DHT22;6591;51.446;5.404;2022-07-29T07:16:31;18.60;99.90
13049;DHT22;6591;51.446;5.404;2022-07-29T07:18:59;18.60;99.90
13049;DHT22;6591;51.446;5.404;2022-07-29T07:21:27;18.70;99.90
13049;DHT22;6591;51.446;5.404;2022-07-29T07:23:58;18.80;99.90
13049;DHT22;6591;51.446;5.404;2022-07-29T07:26:26;18.90;99.90
13049;DHT22;6591;51.446;5.404;2022-07-29T07:28:54;19.90;99.90
13049;DHT22;6591;51.446;5.404;2022-07-29T07:31:21;19.00;99.90
13049;DHT22;6591;51.446;5.404;2022-07-29T07:33:50;19.20;99.80
13049;DHT22;6591;51.446;5.404;2022-07-29T07:36:18;19.20;99.80
13049;DHT22;6591;51.446;5.404;2022-07-29T07:38:46;20.40;99.90
13049;DHT22;6591;51.446;5.404;2022-07-29T07:41:13;19.60;99.70
13049;DHT22;6591;51.446;5.404;2022-07-29T07:43:41;19.80;99.60
13049;DHT22;6591;51.446;5.404;2022-07-29T07:46:08;21.20;99.50
13049;DHT22;6591;51.446;5.404;2022-07-29T07:48:40;20.20;98.90
13049;DHT22;6591;51.446;5.404;2022-07-29T07:51:07;22.00;99.00
13049;DHT22;6591;51.446;5.404;2022-07-29T07:53:34;20.80;98.00
13049;DHT22;6591;51.446;5.404;2022-07-29T07:56:01;23.00;98.20
13049;DHT22;6591;51.446;5.404;2022-07-29T07:58:39;21.20;97.60
13049;DHT22;6591;51.446;5.404;2022-07-29T08:01:07;21.40;97.80
13049;DHT22;6591;51.446;5.404;2022-07-29T08:03:35;21.90;97.60
13049;DHT22;6591;51.446;5.404;2022-07-29T08:06:03;23.80;97.80
13049;DHT22;6591;51.446;5.404;2022-07-29T08:08:31;22.10;97.30
13049;DHT22;6591;51.446;5.404;2022-07-29T08:10:58;22.40;97.40
13049;DHT22;6591;51.446;5.404;2022-07-29T08:13:31;22.60;97.40
13049;DHT22;6591;51.446;5.404;2022-07-29T08:15:59;22.90;96.90
13049;DHT22;6591;51.446;5.404;2022-07-29T08:18:30;23.10;96.00
13049;DHT22;6591;51.446;5.404;2022-07-29T08:20:58;24.80;96.30
13049;DHT22;6591;51.446;5.404;2022-07-29T08:23:26;23.40;95.30
13049;DHT22;6591;51.446;5.404;2022-07-29T08:26:14;23.50;95.30
13049;DHT22;6591;51.446;5.404;2022-07-29T08:28:43;23.70;95.30
13049;DHT22;6591;51.446;5.404;2022-07-29T08:31:17;23.90;94.80
13049;DHT22;6591;51.446;5.404;2022-07-29T08:33:44;25.00;94.90
13049;DHT22;6591;51.446;5.404;2022-07-29T08:36:11;24.30;94.80
13049;DHT22;6591;51.446;5.404;2022-07-29T08:38:46;24.40;94.60
13049;DHT22;6591;51.446;5.404;2022-07-29T08:41:12;24.60;93.60
13049;DHT22;6591;51.446;5.404;2022-07-29T08:43:40;26.30;93.20
13049;DHT22;6591;51.446;5.404;2022-07-29T08:46:07;25.20;92.90
13049;DHT22;6591;51.446;5.404;2022-07-29T08:48:36;25.00;92.20
13049;DHT22;6591;51.446;5.404;2022-07-29T08:51:05;25.10;91.40
13049;DHT22;6591;51.446;5.404;2022-07-29T08:53:41;25.70;91.70
13049;DHT22;6591;51.446;5.404;2022-07-29T08:56:14;25.20;91.40
13049;DHT22;6591;51.446;5.404;2022-07-29T08:58:49;26.70;91.70
13049;DHT22;6591;51.446;5.404;2022-07-29T09:01:22;26.90;91.00
13049;DHT22;6591;51.446;5.404;2022-07-29T09:04:04;25.60;90.30
13049;DHT22;6591;51.446;5.404;2022-07-29T09:06:41;25.80;90.20
13049;DHT22;6591;51.446;5.404;2022-07-29T09:09:11;26.00;90.50
13049;DHT22;6591;51.446;5.404;2022-07-29T09:11:41;26.10;89.90
13049;DHT22;6591;51.446;5.404;2022-07-29T09:14:11;28.20;90.50
13049;DHT22;6591;51.446;5.404;2022-07-29T09:16:48;27.00;88.40
13049;DHT22;6591;51.446;5.404;2022-07-29T09:22:28;26.90;88.70
13049;DHT22;6591;51.446;5.404;2022-07-29T09:24:57;26.90;86.20
13049;DHT22;6591;51.446;5.404;2022-07-29T09:27:27;27.10;88.70
13049;DHT22;6591;51.446;5.404;2022-07-29T09:30:00;27.50;88.60
13049;DHT22;6591;51.446;5.404;2022-07-29T09:32:29;27.70;86.10
13049;DHT22;6591;51.446;5.404;2022-07-29T09:35:22;27.90;86.90
13049;DHT22;6591;51.446;5.404;2022-07-29T09:37:52;28.20;84.50
13049;DHT22;6591;51.446;5.404;2022-07-29T09:40:21;28.50;84.60
13049;DHT22;6591;51.446;5.404;2022-07-29T09:42:49;28.80;82.10
13049;DHT22;6591;51.446;5.404;2022-07-29T09:45:31;28.80;78.30
13049;DHT22;6591;51.446;5.404;2022-07-29T09:48:20;28.90;76.30
13049;DHT22;6591;51.446;5.404;2022-07-29T09:50:49;29.00;74.20
13049;DHT22;6591;51.446;5.404;2022-07-29T09:53:31;29.00;78.10
13049;DHT22;6591;51.446;5.404;2022-07-29T09:56:04;29.10;75.10
13049;DHT22;6591;51.446;5.404;2022-07-29T09:58:32;29.20;75.90
13049;DHT22;6591;51.446;5.404;2022-07-29T10:01:02;29.20;75.70
13049;DHT22;6591;51.446;5.404;2022-07-29T10:03:50;29.30;72.20
13049;DHT22;6591;51.446;5.404;2022-07-29T10:06:18;27.80;67.40
13049;DHT22;6591;51.446;5.404;2022-07-29T10:08:47;31.20;72.20
13049;DHT22;6591;51.446;5.404;2022-07-29T10:11:16;29.20;70.80
13049;DHT22;6591;51.446;5.404;2022-07-29T10:13:45;29.20;70.00
13049;DHT22;6591;51.446;5.404;2022-07-29T10:16:15;29.10;69.40
13049;DHT22;6591;51.446;5.404;2022-07-29T10:18:43;29.20;68.50
13049;DHT22;6591;51.446;5.404;2022-07-29T10:21:11;29.10;67.20
13049;DHT22;6591;51.446;5.404;2022-07-29T10:23:59;29.90;68.60
13049;DHT22;6591;51.446;5.404;2022-07-29T10:26:29;29.00;68.90
13049;DHT22;6591;51.446;5.404;2022-07-29T10:28:56;29.10;69.40
13049;DHT22;6591;51.446;5.404;2022-07-29T10:31:33;31.00;70.60
13049;DHT22;6591;51.446;5.404;2022-07-29T10:34:29;29.00;67.40
13049;DHT22;6591;51.446;5.404;2022-07-29T10:43:35;28.80;67.60
13049;DHT22;6591;51.446;5.404;2022-07-29T10:46:08;28.80;68.10
13049;DHT22;6591;51.446;5.404;2022-07-29T10:49:12;28.90;67.30
13049;DHT22;6591;51.446;5.404;2022-07-29T10:52:00;29.10;66.20
13049;DHT22;6591;51.446;5.404;2022-07-29T10:57:29;29.40;65.40
13049;DHT22;6591;51.446;5.404;2022-07-29T11:00:28;29.60;66.20
13049;DHT22;6591;51.446;5.404;2022-07-29T11:02:57;29.80;67.70
13049;DHT22;6591;51.446;5.404;2022-07-29T11:05:25;30.10;65.70
13049;DHT22;6591;51.446;5.404;2022-07-29T11:10:47;30.70;64.60
13049;DHT22;6591;51.446;5.404;2022-07-29T11:16:15;30.60;61.50
13049;DHT22;6591;51.446;5.404;2022-07-29T11:19:19;30.60;62.50
13049;DHT22;6591;51.446;5.404;2022-07-29T11:21:56;30.60;59.30
13049;DHT22;6591;51.446;5.404;2022-07-29T11:24:31;30.70;59.70
13049;DHT22;6591;51.446;5.404;2022-07-29T11:27:13;30.70;59.50
13049;DHT22;6591;51.446;5.404;2022-07-29T11:29:57;30.80;60.30
13049;DHT22;6591;51.446;5.404;2022-07-29T11:32:41;30.80;60.80
13049;DHT22;6591;51.446;5.404;2022-07-29T11:35:18;31.10;59.20
13049;DHT22;6591;51.446;5.404;2022-07-29T11:41:21;31.30;57.00
13049;DHT22;6591;51.446;5.404;2022-07-29T11:44:05;31.40;58.10
13049;DHT22;6591;51.446;5.404;2022-07-29T11:46:50;31.50;59.90
13049;DHT22;6591;51.446;5.404;2022-07-29T11:49:24;31.80;58.90
13049;DHT22;6591;51.446;5.404;2022-07-29T11:51:58;32.00;56.40
13049;DHT22;6591;51.446;5.404;2022-07-29T11:54:34;32.10;56.80
13049;DHT22;6591;51.446;5.404;2022-07-29T11:57:21;32.20;56.40
13049;DHT22;6591;51.446;5.404;2022-07-29T12:00:06;32.40;57.10
13049;DHT22;6591;51.446;5.404;2022-07-29T12:02:42;32.40;56.80
13049;DHT22;6591;51.446;5.404;2022-07-29T12:05:14;32.60;56.00
13049;DHT22;6591;51.446;5.404;2022-07-29T12:08:14;32.60;54.70
13049;DHT22;6591;51.446;5.404;2022-07-29T12:10:47;32.70;54.20
13049;DHT22;6591;51.446;5.404;2022-07-29T12:13:17;32.70;54.40
13049;DHT22;6591;51.446;5.404;2022-07-29T12:16:03;32.70;52.80
13049;DHT22;6591;51.446;5.404;2022-07-29T12:18:31;32.70;53.20
13049;DHT22;6591;51.446;5.404;2022-07-29T12:21:00;32.70;53.40
13049;DHT22;6591;51.446;5.404;2022-07-29T12:23:32;32.50;53.40
13049;DHT22;6591;51.446;5.404;2022-07-29T12:26:04;32.70;53.10
13049;DHT22;6591;51.446;5.404;2022-07-29T12:28:39;32.60;52.00
13049;DHT22;6591;51.446;5.404;2022-07-29T12:31:13;32.80;51.80
13049;DHT22;6591;51.446;5.404;2022-07-29T12:34:02;32.90;52.20
13049;DHT22;6591;51.446;5.404;2022-07-29T12:36:30;32.90;52.60
13049;DHT22;6591;51.446;5.404;2022-07-29T12:38:57;33.10;52.10
13049;DHT22;6591;51.446;5.404;2022-07-29T12:41:24;34.20;51.80
13049;DHT22;6591;51.446;5.404;2022-07-29T12:43:53;33.20;51.00
13049;DHT22;6591;51.446;5.404;2022-07-29T12:46:21;33.30;51.40
13049;DHT22;6591;51.446;5.404;2022-07-29T12:48:51;33.30;51.50
13049;DHT22;6591;51.446;5.404;2022-07-29T12:51:54;34.60;52.40
13049;DHT22;6591;51.446;5.404;2022-07-29T12:54:22;33.50;50.90
13049;DHT22;6591;51.446;5.404;2022-07-29T12:56:58;33.60;50.90
13049;DHT22;6591;51.446;5.404;2022-07-29T12:59:26;33.60;49.20
13049;DHT22;6591;51.446;5.404;2022-07-29T13:01:53;33.50;49.20
13049;DHT22;6591;51.446;5.404;2022-07-29T13:04:29;33.50;49.60
13049;DHT22;6591;51.446;5.404;2022-07-29T13:07:06;33.30;49.60
13049;DHT22;6591;51.446;5.404;2022-07-29T13:09:44;33.30;50.00
13049;DHT22;6591;51.446;5.404;2022-07-29T13:12:14;33.40;50.80
13049;DHT22;6591;51.446;5.404;2022-07-29T13:14:42;33.50;50.60
13049;DHT22;6591;51.446;5.404;2022-07-29T13:19:51;33.50;49.40
13049;DHT22;6591;51.446;5.404;2022-07-29T13:22:20;33.50;49.70
13049;DHT22;6591;51.446;5.404;2022-07-29T13:25:00;33.50;49.40
13049;DHT22;6591;51.446;5.404;2022-07-29T13:27:31;33.40;49.00
13049;DHT22;6591;51.446;5.404;2022-07-29T13:30:03;33.40;49.80
13049;DHT22;6591;51.446;5.404;2022-07-29T13:32:32;33.40;50.00
13049;DHT22;6591;51.446;5.404;2022-07-29T13:35:06;34.20;49.80
13049;DHT22;6591;51.446;5.404;2022-07-29T13:37:35;33.50;49.40
13049;DHT22;6591;51.446;5.404;2022-07-29T13:40:30;33.50;48.90
13049;DHT22;6591;51.446;5.404;2022-07-29T13:42:58;33.50;46.80
13049;DHT22;6591;51.446;5.404;2022-07-29T13:45:25;33.50;48.20
13049;DHT22;6591;51.446;5.404;2022-07-29T13:47:55;33.60;48.70
13049;DHT22;6591;51.446;5.404;2022-07-29T13:50:21;33.70;49.10
13049;DHT22;6591;51.446;5.404;2022-07-29T13:52:49;33.90;49.70
13049;DHT22;6591;51.446;5.404;2022-07-29T13:55:17;34.10;49.00
13049;DHT22;6591;51.446;5.404;2022-07-29T13:57:45;34.40;48.90
13049;DHT22;6591;51.446;5.404;2022-07-29T14:00:16;34.70;47.80
13049;DHT22;6591;51.446;5.404;2022-07-29T14:02:43;34.90;47.00
13049;DHT22;6591;51.446;5.404;2022-07-29T14:05:10;34.80;46.50
13049;DHT22;6591;51.446;5.404;2022-07-29T14:07:39;34.70;45.70
13049;DHT22;6591;51.446;5.404;2022-07-29T14:10:06;34.60;45.50
13049;DHT22;6591;51.446;5.404;2022-07-29T14:12:34;34.20;45.80
13049;DHT22;6591;51.446;5.404;2022-07-29T14:15:03;34.00;45.30
13049;DHT22;6591;51.446;5.404;2022-07-29T14:17:31;33.80;45.90
13049;DHT22;6591;51.446;5.404;2022-07-29T14:19:57;33.60;46.30
13049;DHT22;6591;51.446;5.404;2022-07-29T14:22:25;33.80;46.20
13049;DHT22;6591;51.446;5.404;2022-07-29T14:24:52;35.10;47.50
13049;DHT22;6591;51.446;5.404;2022-07-29T14:27:19;33.10;46.70
13049;DHT22;6591;51.446;5.404;2022-07-29T14:30:05;33.10;46.90
13049;DHT22;6591;51.446;5.404;2022-07-29T14:32:33;33.10;47.10
13049;DHT22;6591;51.446;5.404;2022-07-29T14:35:04;33.20;46.20
13049;DHT22;6591;51.446;5.404;2022-07-29T14:37:32;33.10;46.10
13049;DHT22;6591;51.446;5.404;2022-07-29T14:40:06;33.40;46.20
13049;DHT22;6591;51.446;5.404;2022-07-29T14:42:34;33.10;46.00
13049;DHT22;6591;51.446;5.404;2022-07-29T14:45:04;33.20;46.90
13049;DHT22;6591;51.446;5.404;2022-07-29T14:47:33;33.30;45.20
13049;DHT22;6591;51.446;5.404;2022-07-29T14:50:01;33.30;45.20
13049;DHT22;6591;51.446;5.404;2022-07-29T14:52:31;33.30;46.20
13049;DHT22;6591;51.446;5.404;2022-07-29T14:54:59;34.20;46.30
13049;DHT22;6591;51.446;5.404;2022-07-29T14:57:27;33.40;45.40
13049;DHT22;6591;51.446;5.404;2022-07-29T14:59:54;33.20;45.10
13049;DHT22;6591;51.446;5.404;2022-07-29T15:02:21;33.10;45.00
13049;DHT22;6591;51.446;5.404;2022-07-29T15:05:02;32.90;45.20
13049;DHT22;6591;51.446;5.404;2022-07-29T15:07:32;32.60;45.60
13049;DHT22;6591;51.446;5.404;2022-07-29T15:09:59;32.30;46.40
13049;DHT22;6591;51.446;5.404;2022-07-29T15:12:28;32.20;46.10
13049;DHT22;6591;51.446;5.404;2022-07-29T15:14:56;31.10;46.00
13049;DHT22;6591;51.446;5.404;2022-07-29T15:17:23;32.10;47.50
13049;DHT22;6591;51.446;5.404;2022-07-29T15:19:51;32.20;47.20
13049;DHT22;6591;51.446;5.404;2022-07-29T15:22:20;32.40;47.10
13049;DHT22;6591;51.446;5.404;2022-07-29T15:24:47;32.60;46.90
13049;DHT22;6591;51.446;5.404;2022-07-29T15:27:14;32.80;46.70
13049;DHT22;6591;51.446;5.404;2022-07-29T15:29:41;32.90;46.50
13049;DHT22;6591;51.446;5.404;2022-07-29T15:32:10;33.10;46.30
13049;DHT22;6591;51.446;5.404;2022-07-29T15:34:37;33.10;46.00
13049;DHT22;6591;51.446;5.404;2022-07-29T15:37:05;33.10;45.10
13049;DHT22;6591;51.446;5.404;2022-07-29T15:39:32;33.00;44.80
13049;DHT22;6591;51.446;5.404;2022-07-29T15:41:59;33.10;44.40
13049;DHT22;6591;51.446;5.404;2022-07-29T15:44:29;32.70;44.30
13049;DHT22;6591;51.446;5.404;2022-07-29T15:46:57;32.50;44.80
13049;DHT22;6591;51.446;5.404;2022-07-29T15:52:18;32.40;45.00
13049;DHT22;6591;51.446;5.404;2022-07-29T15:54:56;32.60;45.10
13049;DHT22;6591;51.446;5.404;2022-07-29T15:57:24;32.70;45.40
13049;DHT22;6591;51.446;5.404;2022-07-29T15:59:51;32.80;44.90
13049;DHT22;6591;51.446;5.404;2022-07-29T16:02:20;32.90;44.70
13049;DHT22;6591;51.446;5.404;2022-07-29T16:04:47;33.00;43.90
13049;DHT22;6591;51.446;5.404;2022-07-29T16:07:14;33.00;43.60
13049;DHT22;6591;51.446;5.404;2022-07-29T16:09:42;33.60;44.10
13049;DHT22;6591;51.446;5.404;2022-07-29T16:12:19;32.70;43.60
13049;DHT22;6591;51.446;5.404;2022-07-29T16:14:50;32.40;43.50
13049;DHT22;6591;51.446;5.404;2022-07-29T16:17:18;32.20;44.00
13049;DHT22;6591;51.446;5.404;2022-07-29T16:19:47;32.00;44.10
13049;DHT22;6591;51.446;5.404;2022-07-29T16:22:15;31.90;44.80
13049;DHT22;6591;51.446;5.404;2022-07-29T16:24:42;31.80;45.00
13049;DHT22;6591;51.446;5.404;2022-07-29T16:27:09;31.70;44.50
13049;DHT22;6591;51.446;5.404;2022-07-29T16:29:37;31.70;44.60
13049;DHT22;6591;51.446;5.404;2022-07-29T16:32:04;31.60;44.70
13049;DHT22;6591;51.446;5.404;2022-07-29T16:34:32;31.60;45.60
13049;DHT22;6591;51.446;5.404;2022-07-29T16:36:59;31.70;45.60
13049;DHT22;6591;51.446;5.404;2022-07-29T16:39:27;31.70;45.40
13049;DHT22;6591;51.446;5.404;2022-07-29T16:41:54;31.90;45.30
13049;DHT22;6591;51.446;5.404;2022-07-29T16:44:26;32.00;45.40
13049;DHT22;6591;51.446;5.404;2022-07-29T16:46:55;32.20;45.50
13049;DHT22;6591;51.446;5.404;2022-07-29T16:49:26;33.10;45.70